Time;durP1;ratioP1;P1;durP2;ratioP2;P2;SDS_P1;SDS_P2;PMS_P1;PMS_P2;Temp;Humidity;BMP_temperature;BMP_pressure;BME280_temperature;BME280_humidity;BME280_pressure;Samples;Min_cycle;Max_cycle;Signal;HPM_P1;HPM_P2
2021/05/31 00:00:31;;;;;;;29.10;18.13;;;;;;;;;;2064541;28;20619;-63
2021/05/31 00:01:32;;;;;;;27.48;18.50;;;;;;;;;;2065211;28;20169;-64
2021/05/31 00:02:32;;;;;;;25.67;19.40;;;;;;;;;;2066627;28;20185;-64
2021/05/31 00:03:32;;;;;;;27.20;19.13;;;;;;;;;;2069689;28;20177;-63
2021/05/31 00:04:33;;;;;;;33.03;19.23;;;;;;;;;;2056172;28;20330;-63
2021/05/31 00:05:33;;;;;;;25.20;19.17;;;;;;;;;;2064245;28;20213;-62
2021/05/31 00:06:48;;;;;;;24.42;20.08;;;;;;;;;;2060622;28;20177;-62
2021/05/31 00:07:49;;;;;;;26.00;18.45;;;;;;;;;;2063640;28;20173;-61
2021/05/31 00:08:49;;;;;;;27.83;20.20;;;;;;;;;;2062966;28;20182;-62
2021/05/31 00:09:54;;;;;;;25.17;20.30;;;;;;;;;;2065032;28;20708;-62
2021/05/31 00:10:54;;;;;;;31.75;19.83;;;;;;;;;;2064377;28;20176;-63
2021/05/31 00:11:55;;;;;;;29.77;20.63;;;;;;;;;;2064331;28;20178;-62
2021/05/31 00:12:55;;;;;;;31.33;20.77;;;;;;;;;;2064112;28;20185;-61
2021/05/31 00:13:57;;;;;;;26.25;19.75;;;;;;;;;;2064722;28;20256;-62
2021/05/31 00:14:57;;;;;;;29.58;21.13;;;;;;;;;;2064699;28;20185;-59
2021/05/31 00:15:57;;;;;;;25.77;19.75;;;;;;;;;;2064108;28;20209;-62
2021/05/31 00:16:57;;;;;;;29.27;21.30;;;;;;;;;;2064965;28;20177;-62
2021/05/31 00:17:58;;;;;;;29.15;19.98;;;;;;;;;;2062818;28;20173;-62
2021/05/31 00:18:58;;;;;;;30.45;20.23;;;;;;;;;;2066965;28;20176;-62
2021/05/31 00:19:58;;;;;;;27.35;20.15;;;;;;;;;;2064109;28;20177;-62
2021/05/31 00:20:59;;;;;;;29.73;20.70;;;;;;;;;;2064697;28;20209;-63
2021/05/31 00:21:59;;;;;;;35.08;22.77;;;;;;;;;;2064857;28;20686;-62
2021/05/31 00:23:00;;;;;;;28.88;21.63;;;;;;;;;;2066459;28;20278;-62
2021/05/31 00:24:00;;;;;;;32.17;21.50;;;;;;;;;;2066129;28;20523;-62
2021/05/31 00:25:00;;;;;;;30.73;21.17;;;;;;;;;;2064618;28;20170;-62
2021/05/31 00:26:01;;;;;;;39.60;22.98;;;;;;;;;;2064463;28;20610;-64
2021/05/31 00:27:01;;;;;;;34.00;23.38;;;;;;;;;;2064513;28;20322;-64
2021/05/31 00:28:01;;;;;;;32.33;22.02;;;;;;;;;;2064324;28;20206;-64
2021/05/31 00:29:01;;;;;;;34.30;23.05;;;;;;;;;;2060927;28;20177;-62
2021/05/31 00:30:03;;;;;;;38.53;23.33;;;;;;;;;;2061523;28;20236;-63
2021/05/31 00:31:03;;;;;;;33.63;23.30;;;;;;;;;;2062209;28;20304;-62
2021/05/31 00:32:04;;;;;;;29.58;21.73;;;;;;;;;;2064269;28;20724;-62
2021/05/31 00:33:04;;;;;;;32.85;22.85;;;;;;;;;;2063798;28;20732;-63
2021/05/31 00:34:04;;;;;;;36.38;24.02;;;;;;;;;;2064487;28;20185;-63
2021/05/31 00:35:06;;;;;;;31.70;24.30;;;;;;;;;;2064033;28;20189;-62
2021/05/31 00:36:07;;;;;;;35.70;24.17;;;;;;;;;;2064794;28;20185;-62
2021/05/31 00:37:07;;;;;;;31.90;22.67;;;;;;;;;;2064873;28;20195;-61
2021/05/31 00:38:07;;;;;;;34.40;23.60;;;;;;;;;;2064331;28;20181;-61
2021/05/31 00:39:08;;;;;;;34.35;24.10;;;;;;;;;;2062463;28;20181;-64
2021/05/31 00:40:09;;;;;;;32.83;24.05;;;;;;;;;;2064046;28;20189;-63
2021/05/31 00:41:09;;;;;;;34.17;24.27;;;;;;;;;;2059048;28;20233;-62
2021/05/31 00:42:09;;;;;;;32.67;23.40;;;;;;;;;;2067268;28;20205;-63
2021/05/31 00:43:10;;;;;;;35.50;24.15;;;;;;;;;;2067732;28;20169;-62
2021/05/31 00:44:10;;;;;;;31.33;23.10;;;;;;;;;;2066720;28;20166;-63
2021/05/31 00:45:11;;;;;;;32.50;24.25;;;;;;;;;;2066711;28;20196;-63
2021/05/31 00:46:11;;;;;;;31.65;23.98;;;;;;;;;;2065862;28;20196;-63
2021/05/31 00:47:11;;;;;;;37.47;25.25;;;;;;;;;;2065365;28;20202;-60
2021/05/31 00:48:12;;;;;;;32.42;24.77;;;;;;;;;;2065526;28;20383;-62
2021/05/31 00:49:14;;;;;;;39.22;24.00;;;;;;;;;;2061618;28;20217;-61
2021/05/31 00:50:15;;;;;;;40.92;25.23;;;;;;;;;;2081970;28;20210;-62
2021/05/31 00:51:15;;;;;;;36.75;25.25;;;;;;;;;;2073806;28;20243;-61
2021/05/31 00:52:15;;;;;;;38.78;23.98;;;;;;;;;;2064714;28;20561;-62
2021/05/31 00:53:16;;;;;;;39.13;25.60;;;;;;;;;;2065308;28;20181;-62
2021/05/31 00:54:16;;;;;;;31.88;24.10;;;;;;;;;;2060855;28;20174;-62
2021/05/31 00:55:17;;;;;;;39.50;25.35;;;;;;;;;;2066486;28;20206;-62
2021/05/31 00:56:17;;;;;;;38.55;27.65;;;;;;;;;;2064500;28;20185;-62
2021/05/31 00:57:18;;;;;;;38.88;27.02;;;;;;;;;;2065706;28;20172;-62
2021/05/31 00:58:18;;;;;;;43.28;27.17;;;;;;;;;;2065815;28;20162;-62
2021/05/31 00:59:18;;;;;;;44.25;28.67;;;;;;;;;;2065110;28;20181;-62
2021/05/31 01:00:19;;;;;;;39.45;27.83;;;;;;;;;;2064805;28;20189;-63
2021/05/31 01:01:20;;;;;;;40.38;27.33;;;;;;;;;;2065987;28;20208;-64
2021/05/31 01:02:21;;;;;;;40.53;28.25;;;;;;;;;;2059847;28;20182;-63
2021/05/31 01:03:22;;;;;;;39.22;27.20;;;;;;;;;;2057995;28;20221;-63
2021/05/31 01:04:22;;;;;;;42.50;27.23;;;;;;;;;;2057751;28;20248;-63
2021/05/31 01:05:23;;;;;;;43.72;29.02;;;;;;;;;;2057971;28;20170;-64
2021/05/31 01:06:27;;;;;;;40.85;27.55;;;;;;;;;;2058196;28;20182;-63
2021/05/31 01:07:35;;;;;;;38.97;26.98;;;;;;;;;;2058450;28;20189;-63
2021/05/31 01:08:58;;;;;;;50.60;28.25;;;;;;;;;;2058037;28;20181;-62
2021/05/31 01:10:02;;;;;;;50.38;28.38;;;;;;;;;;2061737;28;20209;-64
2021/05/31 01:11:26;;;;;;;48.42;29.75;;;;;;;;;;2061123;28;20182;-64
2021/05/31 01:12:29;;;;;;;41.53;28.50;;;;;;;;;;2051709;28;20202;-63
2021/05/31 01:13:30;;;;;;;44.92;28.05;;;;;;;;;;2057605;28;20253;-64
2021/05/31 01:14:49;;;;;;;44.70;29.25;;;;;;;;;;2057734;28;20182;-63
2021/05/31 01:15:58;;;;;;;43.75;27.77;;;;;;;;;;2060710;28;20227;-63
2021/05/31 01:17:06;;;;;;;43.67;28.35;;;;;;;;;;2062678;28;20181;-64
2021/05/31 01:18:13;;;;;;;39.50;27.00;;;;;;;;;;2063204;28;20186;-63
2021/05/31 01:19:20;;;;;;;39.28;25.30;;;;;;;;;;2051856;28;20167;-64
2021/05/31 01:20:23;;;;;;;37.10;25.60;;;;;;;;;;2021636;28;1085679;-62
2021/05/31 01:21:28;;;;;;;43.65;27.80;;;;;;;;;;2065434;28;20676;-63
2021/05/31 01:22:30;;;;;;;48.58;28.27;;;;;;;;;;2066638;28;20185;-64
2021/05/31 01:23:33;;;;;;;41.05;29.50;;;;;;;;;;2065523;28;20189;-65
2021/05/31 01:24:33;;;;;;;39.65;27.85;;;;;;;;;;2067022;28;20276;-64
2021/05/31 01:25:33;;;;;;;45.42;27.38;;;;;;;;;;2056563;28;20179;-63
2021/05/31 01:26:42;;;;;;;43.90;27.92;;;;;;;;;;2062107;28;20181;-63
2021/05/31 01:28:01;;;;;;;39.33;28.65;;;;;;;;;;2065525;28;20190;-64
2021/05/31 01:29:04;;;;;;;45.47;29.95;;;;;;;;;;2061694;28;20643;-63
2021/05/31 01:30:07;;;;;;;55.25;31.55;;;;;;;;;;2059394;28;20174;-64
2021/05/31 01:31:08;;;;;;;51.03;30.33;;;;;;;;;;2058275;28;20174;-63
2021/05/31 01:32:10;;;;;;;49.65;31.25;;;;;;;;;;2063981;28;20591;-64
2021/05/31 01:33:13;;;;;;;48.65;30.75;;;;;;;;;;2065191;28;20178;-63
2021/05/31 01:34:15;;;;;;;49.17;30.98;;;;;;;;;;2060170;28;20261;-63
2021/05/31 01:35:20;;;;;;;47.97;30.20;;;;;;;;;;2065267;28;20208;-64
2021/05/31 01:36:21;;;;;;;50.13;30.95;;;;;;;;;;2063083;28;20208;-63
2021/05/31 01:37:24;;;;;;;50.28;32.53;;;;;;;;;;2065251;28;20805;-63
2021/05/31 01:38:24;;;;;;;56.65;33.80;;;;;;;;;;2069738;28;20201;-64
2021/05/31 01:39:26;;;;;;;52.08;32.85;;;;;;;;;;2064502;28;20638;-62
2021/05/31 01:40:26;;;;;;;56.78;34.13;;;;;;;;;;2064797;28;20214;-64
2021/05/31 01:41:26;;;;;;;53.28;33.72;;;;;;;;;;2065436;28;20252;-65
2021/05/31 01:42:27;;;;;;;52.40;33.58;;;;;;;;;;2066063;28;20520;-63
2021/05/31 01:43:28;;;;;;;58.47;34.38;;;;;;;;;;2065525;28;20655;-64
2021/05/31 01:44:29;;;;;;;51.75;32.25;;;;;;;;;;2056919;28;20265;-60
2021/05/31 01:45:29;;;;;;;49.60;33.97;;;;;;;;;;2061314;28;20707;-62
2021/05/31 01:46:30;;;;;;;54.90;34.03;;;;;;;;;;2066892;28;20224;-63
2021/05/31 01:47:31;;;;;;;50.90;33.15;;;;;;;;;;2065374;28;20256;-63
2021/05/31 01:48:31;;;;;;;53.55;32.63;;;;;;;;;;2064783;28;20738;-63
2021/05/31 01:49:34;;;;;;;52.97;32.42;;;;;;;;;;2064723;28;20176;-63
2021/05/31 01:50:34;;;;;;;48.97;32.22;;;;;;;;;;2064644;28;20200;-61
2021/05/31 01:51:36;;;;;;;50.50;32.03;;;;;;;;;;2062936;28;20188;-62
2021/05/31 01:52:37;;;;;;;54.83;33.17;;;;;;;;;;2065575;28;20200;-62
2021/05/31 01:53:38;;;;;;;52.97;33.55;;;;;;;;;;2065774;28;20212;-63
2021/05/31 01:54:39;;;;;;;51.17;34.00;;;;;;;;;;2063938;28;20300;-63
2021/05/31 01:55:40;;;;;;;53.65;32.30;;;;;;;;;;2066462;28;20189;-63
2021/05/31 01:56:41;;;;;;;57.55;33.55;;;;;;;;;;2062003;28;20206;-63
2021/05/31 01:57:43;;;;;;;52.72;33.97;;;;;;;;;;2064548;28;20634;-62
2021/05/31 01:58:43;;;;;;;52.72;31.98;;;;;;;;;;2065107;28;20212;-62
2021/05/31 01:59:43;;;;;;;55.92;33.88;;;;;;;;;;2060872;28;20162;-62
2021/05/31 02:00:44;;;;;;;48.17;32.03;;;;;;;;;;2065773;28;20665;-63
2021/05/31 02:01:45;;;;;;;49.20;33.78;;;;;;;;;;2065156;28;20173;-63
2021/05/31 02:02:46;;;;;;;51.17;34.53;;;;;;;;;;2067718;28;20625;-63
2021/05/31 02:03:46;;;;;;;55.03;33.88;;;;;;;;;;2066126;28;20182;-64
2021/05/31 02:04:46;;;;;;;56.33;34.25;;;;;;;;;;2065816;28;20252;-63
2021/05/31 02:05:46;;;;;;;53.20;34.22;;;;;;;;;;2067412;28;20229;-63
2021/05/31 02:06:51;;;;;;;58.13;35.20;;;;;;;;;;2064664;28;20182;-63
2021/05/31 02:07:52;;;;;;;52.08;33.67;;;;;;;;;;2064906;28;20180;-63
2021/05/31 02:08:52;;;;;;;52.70;33.97;;;;;;;;;;2065223;28;20197;-62
2021/05/31 02:09:53;;;;;;;53.92;34.33;;;;;;;;;;2066756;28;20600;-64
2021/05/31 02:10:53;;;;;;;49.90;33.55;;;;;;;;;;2062067;28;20281;-62
2021/05/31 02:12:10;;;;;;;55.25;35.08;;;;;;;;;;2066500;28;20562;-63
2021/05/31 02:13:12;;;;;;;52.30;35.53;;;;;;;;;;2065080;28;20182;-64
2021/05/31 02:14:36;;;;;;;58.67;36.47;;;;;;;;;;2065085;28;20273;-63
2021/05/31 02:15:36;;;;;;;54.33;34.75;;;;;;;;;;2067376;28;21468;-64
2021/05/31 02:16:46;;;;;;;58.78;35.92;;;;;;;;;;2062336;28;20178;-63
2021/05/31 02:17:57;;;;;;;60.35;38.05;;;;;;;;;;2065323;28;20823;-63
2021/05/31 02:18:59;;;;;;;58.28;35.92;;;;;;;;;;2065089;28;20177;-62
2021/05/31 02:20:03;;;;;;;64.70;38.03;;;;;;;;;;2065224;28;20170;-63
2021/05/31 02:21:08;;;;;;;62.53;38.10;;;;;;;;;;2056711;28;20249;-63
2021/05/31 02:22:09;;;;;;;58.22;37.55;;;;;;;;;;2064204;28;20177;-63
2021/05/31 02:23:10;;;;;;;57.72;36.28;;;;;;;;;;2068893;28;20321;-63
2021/05/31 02:24:11;;;;;;;64.57;37.45;;;;;;;;;;2069435;28;20277;-63
2021/05/31 02:25:12;;;;;;;56.08;37.00;;;;;;;;;;2065640;28;20174;-64
2021/05/31 02:26:13;;;;;;;54.17;37.60;;;;;;;;;;2065683;28;20181;-64
2021/05/31 02:27:14;;;;;;;55.58;34.22;;;;;;;;;;2065221;28;20169;-63
2021/05/31 02:28:15;;;;;;;58.35;36.92;;;;;;;;;;2065218;28;20263;-64
2021/05/31 02:29:15;;;;;;;60.88;34.95;;;;;;;;;;2060510;28;20186;-63
2021/05/31 02:30:17;;;;;;;58.22;35.53;;;;;;;;;;2065892;28;20204;-63
2021/05/31 02:31:18;;;;;;;51.97;32.70;;;;;;;;;;2063732;28;20170;-63
2021/05/31 02:32:18;;;;;;;54.38;34.22;;;;;;;;;;2065835;28;20626;-64
2021/05/31 02:33:22;;;;;;;54.60;35.20;;;;;;;;;;2071479;28;20169;-63
2021/05/31 02:34:22;;;;;;;57.40;36.65;;;;;;;;;;2061122;28;20182;-63
2021/05/31 02:35:23;;;;;;;54.00;34.15;;;;;;;;;;2062855;28;20296;-63
2021/05/31 02:36:24;;;;;;;50.22;34.50;;;;;;;;;;2058526;28;20169;-62
2021/05/31 02:37:27;;;;;;;53.45;35.85;;;;;;;;;;2067766;28;20184;-63
2021/05/31 02:38:28;;;;;;;55.38;34.30;;;;;;;;;;2066824;28;20701;-62
2021/05/31 02:39:28;;;;;;;59.35;36.38;;;;;;;;;;2064637;28;20232;-64
2021/05/31 02:40:29;;;;;;;61.05;37.03;;;;;;;;;;2062428;28;20198;-65
2021/05/31 02:41:29;;;;;;;62.38;36.60;;;;;;;;;;2059176;28;20162;-64
2021/05/31 02:42:29;;;;;;;60.08;35.67;;;;;;;;;;2065648;28;20185;-64
2021/05/31 02:43:29;;;;;;;57.17;34.80;;;;;;;;;;2065292;28;20165;-62
2021/05/31 02:44:30;;;;;;;57.42;36.13;;;;;;;;;;2063942;28;20805;-64
2021/05/31 02:45:30;;;;;;;57.45;35.33;;;;;;;;;;2065502;28;20698;-64
2021/05/31 02:46:30;;;;;;;56.47;34.53;;;;;;;;;;2070805;28;20199;-62
2021/05/31 02:47:31;;;;;;;53.45;34.47;;;;;;;;;;2066346;28;20210;-64
2021/05/31 02:48:31;;;;;;;58.90;35.20;;;;;;;;;;2065679;28;20173;-63
2021/05/31 02:49:31;;;;;;;55.33;35.40;;;;;;;;;;2061275;28;20213;-63
2021/05/31 02:50:32;;;;;;;57.85;35.78;;;;;;;;;;2066434;28;20280;-63
2021/05/31 02:51:32;;;;;;;50.88;34.40;;;;;;;;;;2066297;28;20178;-63
2021/05/31 02:52:33;;;;;;;57.33;34.40;;;;;;;;;;2072277;28;20689;-64
2021/05/31 02:53:33;;;;;;;58.25;35.03;;;;;;;;;;2067054;28;20177;-63
2021/05/31 02:54:34;;;;;;;61.42;35.80;;;;;;;;;;2066755;28;20200;-64
2021/05/31 02:55:36;;;;;;;52.65;35.47;;;;;;;;;;2066877;28;20213;-63
2021/05/31 02:56:36;;;;;;;55.78;35.95;;;;;;;;;;2066789;28;20181;-62
2021/05/31 02:57:37;;;;;;;56.90;36.35;;;;;;;;;;2066906;28;20245;-63
2021/05/31 02:58:37;;;;;;;57.42;36.03;;;;;;;;;;2066012;28;20654;-62
2021/05/31 02:59:37;;;;;;;53.80;33.75;;;;;;;;;;2066785;28;20181;-62
2021/05/31 03:00:38;;;;;;;62.42;35.67;;;;;;;;;;2063214;28;20238;-63
2021/05/31 03:01:38;;;;;;;58.50;35.78;;;;;;;;;;2064252;28;20650;-64
2021/05/31 03:02:38;;;;;;;60.13;36.38;;;;;;;;;;2066920;28;20662;-62
2021/05/31 03:03:39;;;;;;;55.60;35.17;;;;;;;;;;2065980;28;20188;-63
2021/05/31 03:04:39;;;;;;;60.58;35.78;;;;;;;;;;2065853;28;20177;-63
2021/05/31 03:05:39;;;;;;;58.40;36.72;;;;;;;;;;2066460;28;20213;-63
2021/05/31 03:06:40;;;;;;;61.25;37.55;;;;;;;;;;2069601;28;20174;-62
2021/05/31 03:07:40;;;;;;;62.42;36.90;;;;;;;;;;2061364;28;20332;-62
2021/05/31 03:08:40;;;;;;;63.80;37.70;;;;;;;;;;2064766;28;20189;-60
2021/05/31 03:09:40;;;;;;;60.03;36.92;;;;;;;;;;2062878;28;20674;-63
2021/05/31 03:10:41;;;;;;;61.38;36.38;;;;;;;;;;2065709;28;20277;-64
2021/05/31 03:11:41;;;;;;;56.83;35.80;;;;;;;;;;2066091;28;20185;-64
2021/05/31 03:12:43;;;;;;;62.35;36.92;;;;;;;;;;2069263;28;20264;-63
2021/05/31 03:13:43;;;;;;;63.28;37.28;;;;;;;;;;2064964;28;20177;-62
2021/05/31 03:14:44;;;;;;;61.33;37.65;;;;;;;;;;2065595;28;20209;-63
2021/05/31 03:15:44;;;;;;;61.13;37.63;;;;;;;;;;2062828;28;20190;-64
2021/05/31 03:16:44;;;;;;;59.60;34.83;;;;;;;;;;2061768;28;20710;-64
2021/05/31 03:17:45;;;;;;;64.90;38.03;;;;;;;;;;2061416;28;20177;-62
2021/05/31 03:18:46;;;;;;;59.85;36.00;;;;;;;;;;2069119;28;20196;-62
2021/05/31 03:19:46;;;;;;;61.72;37.00;;;;;;;;;;2065785;28;20173;-62
2021/05/31 03:20:47;;;;;;;57.88;33.75;;;;;;;;;;2068270;28;20682;-63
2021/05/31 03:21:47;;;;;;;61.42;36.45;;;;;;;;;;2067455;28;20185;-63
2021/05/31 03:22:47;;;;;;;64.68;37.40;;;;;;;;;;2068703;28;20171;-62
2021/05/31 03:23:48;;;;;;;61.28;37.60;;;;;;;;;;2069913;28;20227;-62
2021/05/31 03:24:48;;;;;;;60.90;36.80;;;;;;;;;;2057655;28;20178;-64
2021/05/31 03:25:48;;;;;;;58.67;37.88;;;;;;;;;;2062826;28;20165;-63
2021/05/31 03:26:49;;;;;;;65.85;37.72;;;;;;;;;;2065029;28;20197;-63
2021/05/31 03:27:49;;;;;;;59.95;35.85;;;;;;;;;;2064577;28;20630;-63
2021/05/31 03:28:49;;;;;;;58.45;36.75;;;;;;;;;;2067468;28;20165;-62
2021/05/31 03:29:50;;;;;;;64.00;36.35;;;;;;;;;;2067675;28;20215;-63
2021/05/31 03:30:50;;;;;;;58.00;36.30;;;;;;;;;;2073730;28;20189;-63
2021/05/31 03:31:50;;;;;;;61.55;36.28;;;;;;;;;;2069864;28;20173;-63
2021/05/31 03:32:51;;;;;;;55.63;36.33;;;;;;;;;;2065588;28;20648;-64
2021/05/31 03:33:51;;;;;;;61.90;35.83;;;;;;;;;;2069405;28;20172;-64
2021/05/31 03:34:51;;;;;;;63.95;38.65;;;;;;;;;;2068061;28;20785;-62
2021/05/31 03:35:52;;;;;;;61.75;36.15;;;;;;;;;;2069716;28;20200;-64
2021/05/31 03:36:52;;;;;;;62.15;36.10;;;;;;;;;;2068029;28;20285;-63
2021/05/31 03:37:52;;;;;;;63.28;38.33;;;;;;;;;;2064647;28;20178;-64
2021/05/31 03:38:52;;;;;;;59.67;36.58;;;;;;;;;;2063917;28;20197;-63
2021/05/31 03:39:53;;;;;;;58.38;36.55;;;;;;;;;;2056809;28;20182;-62
2021/05/31 03:40:53;;;;;;;56.30;37.63;;;;;;;;;;2068639;28;20186;-63
2021/05/31 03:41:53;;;;;;;62.47;36.90;;;;;;;;;;2062967;28;20200;-63
2021/05/31 03:42:54;;;;;;;61.25;36.10;;;;;;;;;;2065573;28;20180;-63
2021/05/31 03:43:54;;;;;;;59.65;36.35;;;;;;;;;;2063546;28;20170;-63
2021/05/31 03:44:55;;;;;;;55.15;35.05;;;;;;;;;;2065021;28;20284;-62
2021/05/31 03:45:55;;;;;;;55.42;34.10;;;;;;;;;;2065092;28;20312;-63
2021/05/31 03:46:55;;;;;;;53.28;35.08;;;;;;;;;;2064936;28;20185;-62
2021/05/31 03:47:55;;;;;;;54.33;33.50;;;;;;;;;;2064817;28;20181;-63
2021/05/31 03:48:56;;;;;;;53.88;33.72;;;;;;;;;;2065941;28;20196;-63
2021/05/31 03:49:56;;;;;;;56.58;35.00;;;;;;;;;;2067180;28;20189;-62
2021/05/31 03:51:08;;;;;;;55.78;36.08;;;;;;;;;;2064177;28;20227;-63
2021/05/31 03:52:09;;;;;;;53.22;34.30;;;;;;;;;;2063800;28;20169;-63
2021/05/31 03:53:09;;;;;;;53.92;34.83;;;;;;;;;;2063978;28;20252;-63
2021/05/31 03:54:09;;;;;;;51.92;34.30;;;;;;;;;;2064249;28;20181;-63
2021/05/31 03:55:10;;;;;;;54.60;34.22;;;;;;;;;;2065116;28;20196;-65
2021/05/31 03:56:10;;;;;;;51.03;33.70;;;;;;;;;;2064604;28;20523;-63
2021/05/31 03:57:10;;;;;;;47.97;32.17;;;;;;;;;;2068689;28;20200;-62
2021/05/31 03:58:11;;;;;;;55.33;33.70;;;;;;;;;;2073833;28;20173;-63
2021/05/31 03:59:11;;;;;;;53.22;32.47;;;;;;;;;;2073172;28;20189;-64
2021/05/31 04:00:11;;;;;;;49.58;34.25;;;;;;;;;;2072087;28;20172;-63
2021/05/31 04:01:12;;;;;;;48.80;31.90;;;;;;;;;;2070188;28;20184;-63
2021/05/31 04:02:13;;;;;;;47.85;32.47;;;;;;;;;;2070579;28;20255;-63
2021/05/31 04:03:13;;;;;;;47.80;31.92;;;;;;;;;;2064831;28;20285;-62
2021/05/31 04:04:13;;;;;;;48.38;29.75;;;;;;;;;;2065413;28;20177;-62
2021/05/31 04:05:15;;;;;;;49.63;29.92;;;;;;;;;;2065414;28;20604;-63
2021/05/31 04:06:29;;;;;;;44.47;28.85;;;;;;;;;;2066295;28;20657;-61
2021/05/31 04:11:37;;;;;;;35.90;26.27;;;;;;;;;;2045709;28;20298;-62
2021/05/31 04:12:37;;;;;;;38.92;26.75;;;;;;;;;;2064451;28;20249;-63
2021/05/31 04:13:38;;;;;;;40.92;27.98;;;;;;;;;;2064372;28;20649;-63
2021/05/31 04:14:38;;;;;;;39.42;26.92;;;;;;;;;;2057849;28;20561;-64
2021/05/31 04:15:38;;;;;;;40.83;27.85;;;;;;;;;;2057121;28;20205;-63
2021/05/31 04:16:39;;;;;;;36.92;26.60;;;;;;;;;;2057194;28;20178;-63
2021/05/31 04:17:39;;;;;;;36.33;26.60;;;;;;;;;;2057624;28;20166;-62
2021/05/31 04:18:40;;;;;;;41.08;26.48;;;;;;;;;;2057052;28;20253;-63
2021/05/31 04:19:40;;;;;;;39.83;27.65;;;;;;;;;;2064084;28;20212;-63
2021/05/31 04:20:40;;;;;;;39.08;27.00;;;;;;;;;;2064901;28;20217;-63
2021/05/31 04:21:42;;;;;;;38.08;28.30;;;;;;;;;;2064926;28;20649;-63
2021/05/31 04:22:42;;;;;;;35.63;26.40;;;;;;;;;;2065257;28;20384;-63
2021/05/31 04:23:42;;;;;;;37.47;26.27;;;;;;;;;;2065551;28;20244;-62
2021/05/31 04:24:43;;;;;;;32.05;24.08;;;;;;;;;;2058387;28;20182;-62
2021/05/31 04:25:43;;;;;;;29.38;24.23;;;;;;;;;;2058261;28;20185;-62
2021/05/31 04:26:44;;;;;;;27.63;21.88;;;;;;;;;;2058593;28;20516;-62
2021/05/31 04:27:44;;;;;;;32.22;22.38;;;;;;;;;;2060695;28;20192;-62
2021/05/31 04:28:45;;;;;;;27.02;21.40;;;;;;;;;;2065849;28;20197;-63
2021/05/31 04:29:45;;;;;;;28.85;22.00;;;;;;;;;;2058545;28;20244;-62
2021/05/31 04:30:45;;;;;;;30.10;22.80;;;;;;;;;;2059833;28;20201;-62
2021/05/31 04:31:46;;;;;;;27.70;22.08;;;;;;;;;;2066420;28;20605;-62
2021/05/31 04:32:46;;;;;;;27.05;21.60;;;;;;;;;;2065076;28;20595;-63
2021/05/31 04:33:46;;;;;;;28.40;22.35;;;;;;;;;;2058553;28;20689;-63
2021/05/31 04:34:47;;;;;;;31.33;21.40;;;;;;;;;;2064254;28;20209;-62
2021/05/31 04:35:47;;;;;;;28.77;22.23;;;;;;;;;;2066476;28;20240;-62
2021/05/31 04:36:47;;;;;;;27.45;21.05;;;;;;;;;;2060345;28;20176;-64
2021/05/31 04:37:48;;;;;;;24.58;21.42;;;;;;;;;;2066992;28;20184;-62
2021/05/31 04:38:48;;;;;;;29.10;21.63;;;;;;;;;;2059544;28;20224;-62
2021/05/31 04:39:49;;;;;;;25.25;19.83;;;;;;;;;;2064096;28;20650;-62
2021/05/31 04:40:49;;;;;;;25.55;21.70;;;;;;;;;;2065522;28;20196;-62
2021/05/31 04:41:49;;;;;;;28.92;21.42;;;;;;;;;;2065376;28;20181;-64
2021/05/31 04:42:51;;;;;;;24.50;19.88;;;;;;;;;;2075235;28;20646;-64
2021/05/31 04:43:55;;;;;;;30.52;21.45;;;;;;;;;;2068489;28;20661;-62
2021/05/31 04:44:55;;;;;;;27.35;21.38;;;;;;;;;;2065874;28;20176;-63
2021/05/31 04:45:56;;;;;;;26.95;21.30;;;;;;;;;;2067105;28;20173;-63
2021/05/31 04:46:56;;;;;;;26.30;20.52;;;;;;;;;;2066181;28;20177;-63
2021/05/31 04:47:56;;;;;;;24.20;21.08;;;;;;;;;;2065860;28;20177;-62
2021/05/31 04:48:57;;;;;;;26.27;20.35;;;;;;;;;;2066111;28;20256;-62
2021/05/31 04:49:57;;;;;;;27.10;21.40;;;;;;;;;;2065805;28;20169;-62
2021/05/31 04:50:57;;;;;;;26.75;20.95;;;;;;;;;;2062275;28;20181;-62
2021/05/31 04:51:58;;;;;;;27.15;21.08;;;;;;;;;;2064903;28;20169;-64
2021/05/31 04:52:58;;;;;;;24.92;19.75;;;;;;;;;;2065738;28;20644;-62
2021/05/31 04:53:59;;;;;;;30.33;21.95;;;;;;;;;;2066149;28;20186;-63
2021/05/31 04:54:59;;;;;;;24.42;21.15;;;;;;;;;;2057445;28;20225;-63
2021/05/31 04:56:02;;;;;;;23.38;18.75;;;;;;;;;;2050383;28;20253;-63
2021/05/31 04:57:02;;;;;;;25.02;20.52;;;;;;;;;;2067017;28;20192;-63
2021/05/31 04:58:03;;;;;;;25.63;20.77;;;;;;;;;;2066931;28;20634;-64
2021/05/31 04:59:03;;;;;;;27.17;21.20;;;;;;;;;;2066873;28;20177;-63
2021/05/31 05:00:04;;;;;;;27.30;20.42;;;;;;;;;;2064985;28;20189;-61
2021/05/31 05:01:04;;;;;;;22.63;19.80;;;;;;;;;;2065816;28;20177;-63
2021/05/31 05:02:05;;;;;;;24.63;21.13;;;;;;;;;;2066038;28;20174;-62
2021/05/31 05:03:05;;;;;;;24.45;20.30;;;;;;;;;;2065748;28;20196;-61
2021/05/31 05:04:06;;;;;;;24.98;19.88;;;;;;;;;;2058982;28;20222;-63
2021/05/31 05:05:07;;;;;;;24.02;18.60;;;;;;;;;;2063911;28;20188;-63
2021/05/31 05:06:07;;;;;;;23.15;19.73;;;;;;;;;;2067307;28;20170;-63
2021/05/31 05:07:07;;;;;;;25.35;19.55;;;;;;;;;;2065768;28;20189;-61
2021/05/31 05:08:08;;;;;;;24.92;19.08;;;;;;;;;;2065302;28;20312;-60
2021/05/31 05:09:08;;;;;;;24.10;17.42;;;;;;;;;;2066684;28;20261;-59
2021/05/31 05:10:08;;;;;;;22.13;18.17;;;;;;;;;;2067114;28;20625;-60
2021/05/31 05:11:09;;;;;;;21.83;17.80;;;;;;;;;;2065961;28;20166;-60
2021/05/31 05:12:09;;;;;;;23.67;17.48;;;;;;;;;;2059175;28;20694;-60
2021/05/31 05:13:10;;;;;;;23.90;17.70;;;;;;;;;;2065759;28;20552;-59
2021/05/31 05:14:10;;;;;;;24.10;17.90;;;;;;;;;;2064645;28;20169;-60
2021/05/31 05:15:10;;;;;;;20.08;17.77;;;;;;;;;;2066641;28;20197;-62
2021/05/31 05:16:11;;;;;;;21.10;16.60;;;;;;;;;;2069912;28;20539;-61
2021/05/31 05:17:11;;;;;;;19.70;17.05;;;;;;;;;;2062458;28;20178;-60
2021/05/31 05:18:11;;;;;;;19.27;17.15;;;;;;;;;;2064670;28;20213;-56
2021/05/31 05:19:11;;;;;;;18.15;16.15;;;;;;;;;;2064812;28;20721;-59
2021/05/31 05:20:14;;;;;;;17.45;15.63;;;;;;;;;;2064638;28;20174;-58
2021/05/31 05:21:18;;;;;;;19.58;16.92;;;;;;;;;;2066481;28;20205;-57
2021/05/31 05:22:18;;;;;;;18.25;16.35;;;;;;;;;;2063710;28;20630;-58
2021/05/31 05:23:18;;;;;;;19.17;15.95;;;;;;;;;;2066104;28;20170;-53
2021/05/31 05:24:19;;;;;;;17.05;15.25;;;;;;;;;;2074035;23;20667;-52
2021/05/31 05:25:19;;;;;;;17.70;15.75;;;;;;;;;;2059579;28;20181;-52
2021/05/31 05:26:20;;;;;;;16.02;14.32;;;;;;;;;;2065109;28;20205;-55
2021/05/31 05:27:20;;;;;;;17.33;15.10;;;;;;;;;;2066282;28;20165;-53
2021/05/31 05:28:20;;;;;;;17.63;15.73;;;;;;;;;;2065732;28;20181;-54
2021/05/31 05:29:21;;;;;;;20.50;16.10;;;;;;;;;;2067030;28;20185;-60
2021/05/31 05:30:22;;;;;;;16.88;15.07;;;;;;;;;;2065738;28;20176;-57
2021/05/31 05:31:23;;;;;;;17.20;15.23;;;;;;;;;;2064966;28;20181;-61
2021/05/31 05:32:23;;;;;;;18.85;15.18;;;;;;;;;;2065239;28;20197;-61
2021/05/31 05:33:23;;;;;;;20.02;16.23;;;;;;;;;;2065428;28;20181;-61
2021/05/31 05:34:24;;;;;;;21.42;18.20;;;;;;;;;;2065542;28;20197;-59
2021/05/31 05:35:37;;;;;;;20.08;16.77;;;;;;;;;;2066226;28;20197;-60
2021/05/31 05:36:49;;;;;;;19.85;16.85;;;;;;;;;;2064042;28;20724;-61
2021/05/31 05:38:17;;;;;;;22.08;16.08;;;;;;;;;;2066022;28;20170;-57
2021/05/31 05:46:00;;;;;;;21.10;17.58;;;;;;;;;;2064995;28;20253;-57
2021/05/31 05:47:41;;;;;;;24.73;17.67;;;;;;;;;;2065044;28;20178;-58
2021/05/31 05:48:28;;;;;;;20.65;17.45;;;;;;;;;;2062952;28;20173;-56
2021/05/31 05:49:28;;;;;;;22.10;17.60;;;;;;;;;;2065375;28;20650;-54
2021/05/31 05:50:28;;;;;;;23.77;18.65;;;;;;;;;;2053911;28;20224;-52
2021/05/31 05:51:28;;;;;;;20.65;17.73;;;;;;;;;;2055223;28;20183;-56
2021/05/31 05:52:29;;;;;;;21.17;16.83;;;;;;;;;;2066011;28;20377;-53
2021/05/31 05:53:29;;;;;;;25.05;22.23;;;;;;;;;;2065892;28;20248;-54
2021/05/31 05:54:29;;;;;;;23.20;19.23;;;;;;;;;;2065535;28;20194;-54
2021/05/31 05:55:30;;;;;;;23.75;18.67;;;;;;;;;;2065721;28;20209;-55
2021/05/31 05:56:31;;;;;;;33.88;20.98;;;;;;;;;;2065849;28;20584;-55
2021/05/31 05:57:31;;;;;;;24.92;20.58;;;;;;;;;;2065843;28;20638;-54
2021/05/31 05:58:31;;;;;;;22.63;18.85;;;;;;;;;;2057075;28;20261;-54
2021/05/31 05:59:32;;;;;;;24.20;19.83;;;;;;;;;;2056386;28;20184;-58
2021/05/31 06:00:32;;;;;;;33.67;27.17;;;;;;;;;;2064028;28;20259;-55
2021/05/31 06:01:32;;;;;;;23.38;19.58;;;;;;;;;;2064288;28;20196;-56
2021/05/31 06:02:33;;;;;;;24.05;21.00;;;;;;;;;;2064021;28;20173;-58
2021/05/31 06:03:33;;;;;;;27.27;20.83;;;;;;;;;;2064985;28;20209;-53
2021/05/31 06:04:34;;;;;;;28.38;22.65;;;;;;;;;;2065478;28;20256;-56
2021/05/31 06:05:34;;;;;;;23.08;19.95;;;;;;;;;;2059821;28;20182;-57
2021/05/31 06:06:35;;;;;;;23.52;19.73;;;;;;;;;;2057942;28;20190;-59
2021/05/31 06:07:35;;;;;;;22.70;17.98;;;;;;;;;;2052515;28;20194;-54
2021/05/31 06:08:36;;;;;;;21.35;17.50;;;;;;;;;;2056457;28;20194;-54